createdAt,value
2022-10-18T00:00:00.772Z,99766.72
2022-10-18T00:02:27.354Z,99770.28
2022-10-18T00:04:53.892Z,99773.91
2022-10-18T00:07:20.467Z,99770.31
2022-10-18T00:09:46.949Z,99770.28
2022-10-18T00:12:16.561Z,99771.22
2022-10-18T00:14:43.107Z,99773.94
2022-10-18T00:17:09.640Z,99774.94
2022-10-18T00:19:36.177Z,99773.16
2022-10-18T00:22:02.634Z,99778.50
2022-10-18T00:24:29.161Z,99783.00
2022-10-18T00:26:55.631Z,99784.84
2022-10-18T00:29:22.148Z,99773.28
2022-10-18T00:31:48.605Z,99771.50
2022-10-18T00:34:16.357Z,99771.53
2022-10-18T00:36:44.189Z,99770.66
2022-10-18T00:39:19.080Z,99778.66
2022-10-18T00:41:45.991Z,99772.44
2022-10-18T00:44:12.391Z,99778.66
2022-10-18T00:46:44.677Z,99775.97
2022-10-18T00:49:13.409Z,99778.59
2022-10-18T00:51:47.010Z,99770.56
2022-10-18T00:54:16.595Z,99770.56
2022-10-18T00:56:44.898Z,99773.28
2022-10-18T00:59:14.376Z,99781.31
2022-10-18T01:01:40.905Z,99779.50
2022-10-18T01:04:07.409Z,99785.66
2022-10-18T01:06:53.199Z,99786.66
2022-10-18T01:09:31.919Z,99792.13
2022-10-18T01:12:26.017Z,99793.84
2022-10-18T01:14:58.656Z,99793.09
2022-10-18T01:17:57.330Z,99795.03
2022-10-18T01:20:44.234Z,99787.13
2022-10-18T01:23:33.513Z,99792.63
2022-10-18T01:26:12.368Z,99795.31
2022-10-18T01:28:53.443Z,99797.09
2022-10-18T01:31:32.555Z,99794.44
2022-10-18T01:34:04.025Z,99797.09
2022-10-18T01:36:37.673Z,99804.19
2022-10-18T01:39:09.322Z,99788.19
2022-10-18T01:41:39.179Z,99789.16
2022-10-18T01:44:10.318Z,99789.19
2022-10-18T01:46:39.365Z,99790.97
2022-10-18T01:49:05.931Z,99792.75
2022-10-18T01:51:33.583Z,99793.66
2022-10-18T01:54:00.344Z,99790.03
2022-10-18T01:56:41.992Z,99787.44
2022-10-18T01:59:29.730Z,99798.09
2022-10-18T02:02:46.258Z,99794.63
2022-10-18T02:05:30.896Z,99796.44
2022-10-18T02:08:23.851Z,99798.22
2022-10-18T02:11:08.820Z,99794.63
2022-10-18T02:14:01.328Z,99794.69
2022-10-18T02:16:51.919Z,99799.19
2022-10-18T02:19:30.354Z,99795.66
2022-10-18T02:21:59.030Z,99804.53
2022-10-18T02:24:33.584Z,99794.69
2022-10-18T02:27:00.115Z,99792.00
2022-10-18T02:29:26.679Z,99799.97
2022-10-18T02:32:04.289Z,99804.41
2022-10-18T02:34:38.007Z,99795.50
2022-10-18T02:37:05.128Z,99799.03
2022-10-18T02:39:35.717Z,99781.38
2022-10-18T02:42:07.990Z,99785.81
2022-10-18T02:44:35.478Z,99781.31
2022-10-18T02:47:02.674Z,99773.25
2022-10-18T02:49:29.166Z,99772.31
2022-10-18T02:51:55.631Z,99765.19
2022-10-18T02:54:23.023Z,99765.19
2022-10-18T02:56:50.003Z,99761.63
2022-10-18T02:59:16.751Z,99759.84
2022-10-18T03:01:43.480Z,99754.50
2022-10-18T03:04:10.192Z,99756.31
2022-10-18T03:06:36.916Z,99764.38
2022-10-18T03:09:05.827Z,99766.13
2022-10-18T03:11:32.582Z,99762.50
2022-10-18T03:13:59.150Z,99750.09
2022-10-18T03:16:26.029Z,99757.19
2022-10-18T03:18:55.662Z,99764.28
2022-10-18T03:21:22.159Z,99760.72
2022-10-18T03:23:48.685Z,99766.13
2022-10-18T03:26:15.131Z,99750.09
2022-10-18T03:28:41.668Z,99763.44
2022-10-18T03:31:08.387Z,99762.56
2022-10-18T03:33:34.891Z,99754.56
2022-10-18T03:36:01.417Z,99753.78
2022-10-18T03:38:28.182Z,99754.69
2022-10-18T03:40:54.694Z,99743.97
2022-10-18T03:43:21.504Z,99748.34
2022-10-18T03:45:48.063Z,99741.28
2022-10-18T03:48:14.536Z,99737.81
2022-10-18T03:50:41.122Z,99738.78
2022-10-18T03:53:07.627Z,99749.47
2022-10-18T03:55:34.356Z,99740.50
2022-10-18T03:58:00.808Z,99735.13
2022-10-18T04:00:27.284Z,99733.34
2022-10-18T04:02:55.885Z,99736.91
2022-10-18T04:05:28.029Z,99737.81
2022-10-18T04:07:54.790Z,99738.72
2022-10-18T04:10:21.358Z,99742.28
2022-10-18T04:12:47.816Z,99739.59
2022-10-18T04:15:14.404Z,99748.53
2022-10-18T04:17:40.900Z,99737.88
2022-10-18T04:20:07.791Z,99743.28
2022-10-18T04:22:34.240Z,99742.41
2022-10-18T04:25:01.225Z,99726.34
2022-10-18T04:27:27.713Z,99737.03
2022-10-18T04:29:54.182Z,99733.50
2022-10-18T04:32:20.664Z,99738.00
2022-10-18T04:34:47.163Z,99726.44
2022-10-18T04:37:13.869Z,99729.13
2022-10-18T04:39:40.360Z,99723.81
2022-10-18T04:42:06.830Z,99721.16
2022-10-18T04:44:34.360Z,99721.22
2022-10-18T04:47:00.872Z,99729.16
2022-10-18T04:49:27.353Z,99718.47
2022-10-18T04:51:53.898Z,99720.31
2022-10-18T04:54:21.871Z,99728.31
2022-10-18T04:56:50.394Z,99731.00
2022-10-18T04:59:16.914Z,99733.66
2022-10-18T05:01:43.518Z,99732.78
2022-10-18T05:04:10.075Z,99729.19
2022-10-18T05:06:36.504Z,99732.72
2022-10-18T05:09:03.053Z,99735.44
2022-10-18T05:11:29.503Z,99733.72
2022-10-18T05:13:56.164Z,99739.97
2022-10-18T05:16:22.660Z,99739.06
2022-10-18T05:18:49.202Z,99731.91
2022-10-18T05:21:16.381Z,99739.00
2022-10-18T05:23:43.100Z,99746.13
2022-10-18T05:26:09.598Z,99744.34
2022-10-18T05:28:40.370Z,99751.47
2022-10-18T05:31:09.819Z,99749.75
2022-10-18T05:33:36.364Z,99748.03
2022-10-18T05:36:03.925Z,99748.03
2022-10-18T05:38:31.144Z,99744.44
2022-10-18T05:40:58.667Z,99738.22
2022-10-18T05:43:29.010Z,99748.91
2022-10-18T05:45:55.940Z,99747.97
2022-10-18T05:48:22.438Z,99747.97
2022-10-18T05:50:48.958Z,99741.75
2022-10-18T05:53:35.343Z,99741.75
2022-10-18T05:56:02.746Z,99753.31
2022-10-18T05:58:29.369Z,99754.25
2022-10-18T06:01:01.589Z,99755.13
2022-10-18T06:03:30.464Z,99757.84
2022-10-18T06:06:05.948Z,99762.34
2022-10-18T06:08:33.277Z,99753.47
2022-10-18T06:11:00.009Z,99756.13
2022-10-18T06:13:27.163Z,99757.88
2022-10-18T06:15:57.688Z,99756.03
2022-10-18T06:18:24.363Z,99762.28
2022-10-18T06:20:56.879Z,99764.13
2022-10-18T06:23:23.385Z,99770.38
2022-10-18T06:25:49.881Z,99766.84
2022-10-18T06:28:17.128Z,99767.78
2022-10-18T06:30:44.244Z,99764.22
2022-10-18T06:33:13.841Z,99765.97
2022-10-18T06:35:40.388Z,99764.19
2022-10-18T06:38:06.871Z,99762.41
2022-10-18T06:40:38.046Z,99762.41
2022-10-18T06:43:20.035Z,99759.69
2022-10-18T06:45:47.743Z,99754.38
2022-10-18T06:48:14.398Z,99757.06
2022-10-18T06:50:40.959Z,99765.06
2022-10-18T06:53:09.003Z,99764.19
2022-10-18T06:55:36.066Z,99771.31
2022-10-18T06:58:02.739Z,99760.66
2022-10-18T07:00:29.251Z,99764.22
2022-10-18T07:02:57.156Z,99762.44
2022-10-18T07:05:24.010Z,99760.66
2022-10-18T07:07:54.222Z,99759.78
2022-10-18T07:10:23.570Z,99762.44
2022-10-18T07:12:51.601Z,99768.66
2022-10-18T07:15:22.638Z,99766.84
2022-10-18T07:17:49.398Z,99773.06
2022-10-18T07:20:16.650Z,99771.31
2022-10-18T07:22:43.162Z,99776.59
2022-10-18T07:25:09.723Z,99779.25
2022-10-18T07:27:39.962Z,99784.63
2022-10-18T07:30:09.208Z,99788.16
2022-10-18T07:32:35.863Z,99789.13
2022-10-18T07:35:03.016Z,99777.66
2022-10-18T07:37:30.416Z,99778.47
2022-10-18T07:39:57.169Z,99789.13
2022-10-18T07:42:23.702Z,99781.97
2022-10-18T07:44:50.614Z,99784.59
2022-10-18T07:47:17.253Z,99787.38
2022-10-18T07:49:43.735Z,99797.16
2022-10-18T07:52:11.368Z,99798.91
2022-10-18T07:54:37.986Z,99791.78
2022-10-18T07:57:05.021Z,99792.66
2022-10-18T07:59:31.491Z,99799.72
2022-10-18T08:01:58.176Z,99793.50
2022-10-18T08:04:24.767Z,99792.59
2022-10-18T08:06:51.282Z,99795.25
2022-10-18T08:09:17.730Z,99794.34
2022-10-18T08:11:44.240Z,99794.31
2022-10-18T08:14:10.759Z,99791.63
2022-10-18T08:16:37.265Z,99795.19
2022-10-18T08:19:04.272Z,99792.44
2022-10-18T08:21:30.806Z,99800.41
2022-10-18T08:23:57.310Z,99793.28
2022-10-18T08:26:24.025Z,99800.41
2022-10-18T08:28:58.184Z,99795.03
2022-10-18T08:31:31.045Z,99799.47
2022-10-18T08:33:57.635Z,99798.53
2022-10-18T08:36:24.651Z,99795.81
2022-10-18T08:38:51.700Z,99799.31
2022-10-18T08:41:50.515Z,99802.81
2022-10-18T08:44:32.359Z,99798.34
2022-10-18T08:47:04.377Z,99792.94
2022-10-18T08:49:47.604Z,99802.72
2022-10-18T08:52:23.508Z,99800.19
2022-10-18T08:54:58.769Z,99800.28
2022-10-18T08:57:25.541Z,99802.97
2022-10-18T08:59:52.103Z,99805.66
2022-10-18T09:02:47.105Z,99807.34
2022-10-18T09:05:27.950Z,99806.44
2022-10-18T09:08:15.665Z,99806.44
2022-10-18T09:10:45.904Z,99793.09
2022-10-18T09:13:36.277Z,99801.91
2022-10-18T09:16:05.076Z,99808.13
2022-10-18T09:18:51.504Z,99813.44
2022-10-18T09:21:41.973Z,99815.00
2022-10-18T09:24:22.256Z,99809.50
2022-10-18T09:26:53.059Z,99806.88
2022-10-18T09:29:49.238Z,99812.13
2022-10-18T09:32:24.556Z,99811.22
2022-10-18T09:34:53.530Z,99819.22
2022-10-18T09:37:22.156Z,99826.50
2022-10-18T09:39:50.760Z,99825.69
2022-10-18T09:42:30.518Z,99835.50
2022-10-18T09:45:26.451Z,99828.34
2022-10-18T09:48:31.191Z,99826.50
2022-10-18T09:51:05.210Z,99825.56
2022-10-18T09:53:56.769Z,99828.38
2022-10-18T09:56:46.844Z,99824.00
2022-10-18T09:59:42.408Z,99823.16
2022-10-18T10:02:17.338Z,99830.28
2022-10-18T10:04:44.585Z,99829.50
2022-10-18T10:07:29.812Z,99837.50
2022-10-18T10:10:07.859Z,99834.72
2022-10-18T10:12:39.431Z,99830.25
2022-10-18T10:15:28.178Z,99834.72
2022-10-18T10:18:20.484Z,99832.94
2022-10-18T10:20:55.787Z,99838.25
2022-10-18T10:23:32.077Z,99841.84
2022-10-18T10:26:01.565Z,99840.06
2022-10-18T10:28:35.670Z,99843.72
2022-10-18T10:31:33.943Z,99845.53
2022-10-18T10:34:01.999Z,99843.72
2022-10-18T10:36:29.056Z,99836.59
2022-10-18T10:39:07.649Z,99841.00
2022-10-18T10:41:34.857Z,99844.50
2022-10-18T10:44:04.137Z,99843.59
2022-10-18T10:46:36.477Z,99843.72
2022-10-18T10:49:38.128Z,99839.22
2022-10-18T10:52:08.475Z,99840.94
2022-10-18T10:54:38.963Z,99840.06
2022-10-18T10:57:11.306Z,99839.16
2022-10-18T10:59:49.603Z,99842.72
2022-10-18T11:02:18.660Z,99840.03
2022-10-18T11:04:48.017Z,99840.00
2022-10-18T11:07:23.844Z,99844.47
2022-10-18T11:10:10.936Z,99837.25
2022-10-18T11:12:48.349Z,99846.13
2022-10-18T11:15:23.569Z,99841.66
2022-10-18T11:17:59.166Z,99838.97
2022-10-18T11:20:43.540Z,99846.97
2022-10-18T11:23:17.464Z,99825.56
2022-10-18T11:26:11.778Z,99831.88
2022-10-18T11:29:22.398Z,99834.44
2022-10-18T11:32:11.805Z,99828.88
2022-10-18T11:34:53.126Z,99833.31
2022-10-18T11:37:46.476Z,99837.78
2022-10-18T11:40:18.860Z,99838.72
2022-10-18T11:43:01.889Z,99824.59
2022-10-18T11:45:49.625Z,99839.81
2022-10-18T11:48:34.985Z,99826.34
2022-10-18T11:51:15.372Z,99831.50
2022-10-18T11:53:51.653Z,99835.88
2022-10-18T11:56:33.378Z,99837.84
2022-10-18T11:58:59.769Z,99833.53
2022-10-18T12:01:50.523Z,99834.41
2022-10-18T12:04:24.472Z,99828.16
2022-10-18T12:06:54.576Z,99823.69
2022-10-18T12:09:27.915Z,99828.19
2022-10-18T12:12:03.117Z,99830.06
2022-10-18T12:14:35.091Z,99823.81
2022-10-18T12:17:51.461Z,99827.38
2022-10-18T12:20:17.676Z,99830.16
2022-10-18T12:23:01.181Z,99823.06
2022-10-18T12:25:30.864Z,99817.72
2022-10-18T12:28:16.664Z,99823.94
2022-10-18T12:30:54.356Z,99829.25
2022-10-18T12:33:28.604Z,99823.94
2022-10-18T12:36:02.413Z,99816.81
2022-10-18T12:38:33.671Z,99812.38
2022-10-18T12:41:00.865Z,99816.78
2022-10-18T12:43:39.286Z,99811.50
2022-10-18T12:46:13.041Z,99810.56
2022-10-18T12:48:43.091Z,99803.41
2022-10-18T12:51:15.204Z,99810.59
2022-10-18T12:53:46.771Z,99808.72
2022-10-18T12:56:28.455Z,99807.78
2022-10-18T12:59:17.017Z,99804.34
2022-10-18T13:01:55.416Z,99812.47
2022-10-18T13:04:27.918Z,99805.31
2022-10-18T13:07:21.198Z,99810.66
2022-10-18T13:10:09.624Z,99822.19
2022-10-18T13:12:42.231Z,99807.00
2022-10-18T13:15:31.039Z,99811.34
2022-10-18T13:18:01.682Z,99813.75
2022-10-18T13:20:38.904Z,99810.06
2022-10-18T13:23:08.485Z,99814.50
2022-10-18T13:25:54.982Z,99811.91
2022-10-18T13:28:25.067Z,99810.28
2022-10-18T13:31:09.938Z,99801.53
2022-10-18T13:33:39.401Z,99810.56
2022-10-18T13:36:22.657Z,99808.78
2022-10-18T13:38:55.773Z,99818.56
2022-10-18T13:41:30.195Z,99806.00
2022-10-18T13:44:22.309Z,99805.00
2022-10-18T13:46:48.751Z,99814.78
2022-10-18T13:49:39.687Z,99813.81
2022-10-18T13:52:21.321Z,99818.22
2022-10-18T13:55:12.634Z,99815.63
2022-10-18T13:58:03.908Z,99815.63
2022-10-18T14:00:49.276Z,99818.22
2022-10-18T14:03:55.758Z,99819.13
2022-10-18T14:06:27.018Z,99818.38
2022-10-18T14:09:19.396Z,99820.22
2022-10-18T14:12:23.977Z,99820.25
2022-10-18T14:15:18.146Z,99832.63
2022-10-18T14:17:56.460Z,99827.22
2022-10-18T14:20:40.090Z,99826.34
2022-10-18T14:23:31.471Z,99828.06
2022-10-18T14:26:09.309Z,99826.22
2022-10-18T14:28:58.674Z,99825.38
2022-10-18T14:31:22.939Z,99828.03
2022-10-18T14:33:57.273Z,99824.53
2022-10-18T14:36:27.113Z,99821.91
2022-10-18T14:39:01.951Z,99829.94
2022-10-18T14:41:33.349Z,99832.66
2022-10-18T14:44:27.508Z,99835.28
2022-10-18T14:47:14.139Z,99832.59
2022-10-18T14:49:45.066Z,99839.69
2022-10-18T14:52:16.143Z,99831.59
2022-10-18T14:54:43.042Z,99837.78
2022-10-18T14:57:19.176Z,99850.22
2022-10-18T14:59:51.833Z,99832.44
2022-10-18T15:02:24.128Z,99850.34
2022-10-18T15:05:07.127Z,99841.47
2022-10-18T15:07:34.166Z,99845.06
2022-10-18T15:10:04.273Z,99845.94
2022-10-18T15:12:36.857Z,99850.41
2022-10-18T15:15:22.022Z,99844.19
2022-10-18T15:17:49.568Z,99851.41
2022-10-18T15:20:32.249Z,99849.69
2022-10-18T15:23:27.438Z,99846.19
2022-10-18T15:26:03.078Z,99848.06
2022-10-18T15:28:32.612Z,99849.88
2022-10-18T15:31:01.602Z,99855.19
2022-10-18T15:33:34.327Z,99854.28
2022-10-18T15:36:17.723Z,99857.91
2022-10-18T15:38:47.537Z,99860.63
2022-10-18T15:41:39.515Z,99854.47
2022-10-18T15:44:11.650Z,99856.31
2022-10-18T15:46:40.622Z,99861.72
2022-10-18T15:49:25.275Z,99861.81
2022-10-18T15:52:03.573Z,99868.09
2022-10-18T15:54:33.069Z,99869.03
2022-10-18T15:57:07.308Z,99865.53
2022-10-18T15:59:33.844Z,99866.47
2022-10-18T16:02:00.970Z,99872.75
2022-10-18T16:04:30.151Z,99862.94
2022-10-18T16:06:57.923Z,99865.63
2022-10-18T16:09:27.348Z,99869.16
2022-10-18T16:11:56.932Z,99875.41
2022-10-18T16:14:24.482Z,99875.41
2022-10-18T16:16:56.363Z,99883.44
2022-10-18T16:19:22.889Z,99880.78
2022-10-18T16:21:50.502Z,99879.91
2022-10-18T16:24:17.195Z,99886.13
2022-10-18T16:26:43.800Z,99885.25
2022-10-18T16:29:14.657Z,99890.59
2022-10-18T16:31:41.348Z,99878.16
2022-10-18T16:34:11.079Z,99880.84
2022-10-18T16:36:37.741Z,99886.16
2022-10-18T16:39:09.761Z,99889.75
2022-10-18T16:41:36.194Z,99888.88
2022-10-18T16:44:02.670Z,99896.03
2022-10-18T16:46:33.499Z,99895.16
2022-10-18T16:49:00.888Z,99899.59
2022-10-18T16:51:27.686Z,99899.59
2022-10-18T16:53:54.873Z,99900.50
2022-10-18T16:56:28.173Z,99899.63
2022-10-18T16:58:54.872Z,99903.19
2022-10-18T17:01:23.224Z,99908.53
2022-10-18T17:03:53.820Z,99907.66
2022-10-18T17:06:22.117Z,99905.88
2022-10-18T17:08:49.499Z,99897.00
2022-10-18T17:11:17.496Z,99900.56
2022-10-18T17:13:44.276Z,99913.91
2022-10-18T17:16:23.874Z,99909.47
2022-10-18T17:18:51.118Z,99908.59
2022-10-18T17:21:17.651Z,99916.59
2022-10-18T17:23:44.132Z,99915.69
2022-10-18T17:26:28.285Z,99913.91
2022-10-18T17:28:58.805Z,99918.38
2022-10-18T17:31:28.400Z,99920.16
2022-10-18T17:33:55.426Z,99915.69
2022-10-18T17:36:22.300Z,99913.94
2022-10-18T17:38:52.934Z,99921.03
2022-10-18T17:41:19.998Z,99922.78
2022-10-18T17:43:48.215Z,99924.56
2022-10-18T17:46:15.839Z,99926.38
2022-10-18T17:48:42.467Z,99929.91
2022-10-18T17:51:14.331Z,99932.56
2022-10-18T17:53:40.794Z,99935.25
2022-10-18T17:56:08.111Z,99928.97
2022-10-18T17:58:35.391Z,99940.50
2022-10-18T18:01:14.231Z,99942.31
2022-10-18T18:03:41.028Z,99934.31
2022-10-18T18:06:19.791Z,99943.16
2022-10-18T18:08:47.685Z,99945.84
2022-10-18T18:11:14.851Z,99952.91
2022-10-18T18:13:41.587Z,99957.38
2022-10-18T18:16:20.362Z,99965.34
2022-10-18T18:18:49.174Z,99964.44
2022-10-18T18:21:15.647Z,99972.44
2022-10-18T18:23:42.617Z,99973.28
2022-10-18T18:26:09.290Z,99971.47
2022-10-18T18:28:36.630Z,99977.69
2022-10-18T18:31:08.887Z,99979.44
2022-10-18T18:33:37.705Z,99979.44
2022-10-18T18:36:08.771Z,99969.69
2022-10-18T18:38:37.644Z,99975.91
2022-10-18T18:41:05.757Z,99977.72
2022-10-18T18:43:32.305Z,99976.78
2022-10-18T18:45:58.795Z,99978.56
2022-10-18T18:48:27.017Z,99976.75
2022-10-18T18:50:54.041Z,99969.66
2022-10-18T18:53:20.637Z,99959.91
2022-10-18T18:55:48.403Z,99965.22
2022-10-18T18:58:14.939Z,99968.69
2022-10-18T19:00:44.395Z,99967.84
2022-10-18T19:03:12.534Z,99966.06
2022-10-18T19:05:39.020Z,99979.34
2022-10-18T19:08:06.016Z,99964.25
2022-10-18T19:10:32.694Z,99967.78
2022-10-18T19:12:59.304Z,99972.16
2022-10-18T19:15:25.885Z,99977.53
2022-10-18T19:17:55.350Z,99983.69
2022-10-18T19:20:22.221Z,99985.47
2022-10-18T19:22:48.794Z,99981.06
2022-10-18T19:25:15.336Z,99978.41
2022-10-18T19:27:42.827Z,99980.16
2022-10-18T19:30:11.359Z,99980.16
2022-10-18T19:32:37.892Z,99972.16
2022-10-18T19:35:04.882Z,99969.50
2022-10-18T19:37:31.857Z,99966.84
2022-10-18T19:39:59.449Z,99961.53
2022-10-18T19:42:30.264Z,99972.16
2022-10-18T19:44:57.731Z,99970.34
2022-10-18T19:47:24.301Z,99966.81
2022-10-18T19:49:51.789Z,99975.66
2022-10-18T19:52:18.305Z,99974.75
2022-10-18T19:54:45.145Z,99992.41
2022-10-18T19:57:11.684Z,99994.16
2022-10-18T20:02:05.582Z,99993.28
2022-10-18T20:04:34.797Z,100003.03
2022-10-18T20:07:04.966Z,99995.00
2022-10-18T20:09:31.509Z,100005.56
2022-10-18T20:11:58.022Z,100006.47
2022-10-18T20:14:24.678Z,99995.81
2022-10-18T20:16:51.239Z,99998.56
2022-10-18T20:19:17.762Z,100011.78
2022-10-18T20:21:44.320Z,100012.66
2022-10-18T20:24:11.408Z,100011.75
2022-10-18T20:26:39.512Z,100027.69
2022-10-18T20:29:07.556Z,100024.16
2022-10-18T20:31:38.368Z,100016.19
2022-10-18T20:34:10.829Z,100023.22
2022-10-18T20:36:37.497Z,100017.78
2022-10-18T20:39:04.954Z,100016.91
2022-10-18T20:41:37.957Z,100018.75
2022-10-18T20:44:10.656Z,100020.56
2022-10-18T20:46:38.780Z,100019.66
2022-10-18T20:49:07.014Z,100024.97
2022-10-18T20:51:33.864Z,100011.75
2022-10-18T20:54:01.706Z,100025.84
2022-10-18T20:56:28.368Z,100023.09
2022-10-18T20:58:56.758Z,100023.09
2022-10-18T21:01:26.115Z,100030.16
2022-10-18T21:03:55.651Z,100032.75
2022-10-18T21:06:25.450Z,100032.81
2022-10-18T21:08:53.736Z,100023.94
2022-10-18T21:11:20.461Z,100019.53
2022-10-18T21:13:54.529Z,100027.50
2022-10-18T21:16:21.021Z,100015.00
2022-10-18T21:18:48.614Z,100009.69
2022-10-18T21:21:25.306Z,100006.97
2022-10-18T21:23:52.673Z,100004.28
2022-10-18T21:26:25.165Z,100006.94
2022-10-18T21:28:53.638Z,100006.00
2022-10-18T21:31:28.092Z,99999.75
2022-10-18T21:33:59.638Z,100006.63
2022-10-18T21:36:27.479Z,100004.03
2022-10-18T21:38:54.119Z,100004.94
2022-10-18T21:41:21.599Z,100003.19
2022-10-18T21:43:53.219Z,99996.91
2022-10-18T21:46:21.762Z,99992.47
2022-10-18T21:48:50.512Z,99994.25
2022-10-18T21:51:18.925Z,99995.19
2022-10-18T21:53:47.996Z,99991.59
2022-10-18T21:56:19.824Z,99990.75
2022-10-18T21:58:46.954Z,99994.34
2022-10-18T22:01:16.380Z,99996.97
2022-10-18T22:03:43.781Z,99996.00
2022-10-18T22:06:14.535Z,99998.63
2022-10-18T22:08:43.340Z,100003.84
2022-10-18T22:11:11.888Z,100000.28
2022-10-18T22:13:39.054Z,99996.75
2022-10-18T22:16:07.628Z,99993.28
2022-10-18T22:18:34.997Z,99993.22
2022-10-18T22:21:05.729Z,99991.47
2022-10-18T22:23:38.484Z,99993.22
2022-10-18T22:26:07.889Z,99998.53
2022-10-18T22:28:35.527Z,99990.47
2022-10-18T22:31:02.096Z,99990.53
2022-10-18T22:33:29.014Z,99992.22
2022-10-18T22:35:55.599Z,99992.31
2022-10-18T22:38:22.335Z,99990.50
2022-10-18T22:40:49.277Z,99992.28
2022-10-18T22:43:15.741Z,99986.00
2022-10-18T22:45:42.221Z,99992.16
2022-10-18T22:48:08.804Z,99993.84
2022-10-18T22:50:35.256Z,99994.75
2022-10-18T22:53:01.764Z,99995.72
2022-10-18T22:55:28.210Z,99987.78
2022-10-18T22:57:56.323Z,99984.22
2022-10-18T23:00:22.874Z,99986.00
2022-10-18T23:02:49.942Z,99986.00
2022-10-18T23:05:16.521Z,99986.91
2022-10-18T23:07:47.817Z,99983.44
2022-10-18T23:10:14.608Z,99978.16
2022-10-18T23:12:41.167Z,99979.94
2022-10-18T23:15:08.372Z,99974.63
2022-10-18T23:17:35.226Z,99980.03
2022-10-18T23:20:01.943Z,99978.16
2022-10-18T23:22:28.489Z,99981.75
2022-10-18T23:24:54.942Z,99981.81
2022-10-18T23:27:21.405Z,99971.22
2022-10-18T23:29:47.936Z,99975.50
2022-10-18T23:32:14.408Z,99972.75
2022-10-18T23:34:40.872Z,99973.28
2022-10-18T23:37:07.326Z,99967.19
2022-10-18T23:39:33.811Z,99971.59
2022-10-18T23:42:00.244Z,99974.91
2022-10-18T23:44:26.722Z,99975.56
2022-10-18T23:46:53.182Z,99957.16
2022-10-18T23:49:19.819Z,99975.78
2022-10-18T23:51:46.282Z,99973.91
2022-10-18T23:54:12.904Z,99976.53
2022-10-18T23:56:39.337Z,99979.31
2022-10-18T23:59:05.788Z,99978.50
